Time;durP1;ratioP1;P1;durP2;ratioP2;P2;SDS_P1;SDS_P2;PMS_P1;PMS_P2;Temp;Humidity;BMP_temperature;BMP_pressure;BME280_temperature;BME280_humidity;BME280_pressure;Samples;Min_cycle;Max_cycle;Signal;HPM_P1;HPM_P2
2024/01/12 00:01:17;;;;;;;60.80;32.75;;;;;;;-2.34;67.41;97825.50;5063664;28;20583;-85
2024/01/12 00:03:46;;;;;;;56.03;31.67;;;;;;;-2.35;66.95;97826.44;5064548;28;20080;-82
2024/01/12 00:06:14;;;;;;;55.85;31.25;;;;;;;-2.40;67.08;97825.81;5065251;28;20076;-85
2024/01/12 00:08:42;;;;;;;58.33;31.67;;;;;;;-2.38;67.52;97824.84;5063969;28;20056;-86
2024/01/12 00:11:10;;;;;;;56.78;31.63;;;;;;;-2.42;66.93;97830.19;5062975;28;20061;-84
2024/01/12 00:13:39;;;;;;;61.40;33.42;;;;;;;-2.43;67.42;97831.06;5061342;28;20053;-85
2024/01/12 00:16:07;;;;;;;53.80;31.80;;;;;;;-2.43;67.04;97828.50;5061828;28;20112;-85
2024/01/12 00:18:34;;;;;;;53.22;29.90;;;;;;;-2.40;67.68;97826.66;5061989;28;20049;-84
2024/01/12 00:21:04;;;;;;;58.10;31.85;;;;;;;-2.37;68.01;97834.16;5062266;28;20059;-86
2024/01/12 00:23:31;;;;;;;57.85;29.77;;;;;;;-2.31;68.27;97822.84;5061159;28;20049;-86
2024/01/12 00:25:59;;;;;;;58.58;33.38;;;;;;;-2.23;67.95;97833.53;5062133;28;20044;-85
2024/01/12 00:28:27;;;;;;;61.10;35.47;;;;;;;-2.28;67.24;97830.34;5063599;28;20052;-84
2024/01/12 00:30:55;;;;;;;61.75;34.53;;;;;;;-2.38;67.17;97835.06;5062418;28;20049;-84
2024/01/12 00:33:23;;;;;;;58.60;33.78;;;;;;;-2.39;66.91;97832.56;5062109;28;20477;-86
2024/01/12 00:35:51;;;;;;;66.70;36.03;;;;;;;-2.39;67.27;97835.13;5062650;28;20045;-84
2024/01/12 00:38:21;;;;;;;70.07;37.75;;;;;;;-2.41;67.76;97834.38;5062959;28;20052;-86
2024/01/12 00:40:48;;;;;;;65.97;35.22;;;;;;;-2.41;67.91;97829.25;5062051;28;20115;-85
2024/01/12 00:43:16;;;;;;;63.72;35.63;;;;;;;-2.40;67.62;97836.88;5062044;28;20045;-85
2024/01/12 00:45:44;;;;;;;60.10;35.60;;;;;;;-2.43;67.83;97841.28;5068679;28;20069;-86
2024/01/12 00:48:11;;;;;;;57.13;32.97;;;;;;;-2.47;67.30;97826.97;5071426;28;20045;-88
2024/01/12 00:50:39;;;;;;;61.80;32.45;;;;;;;-2.57;66.19;97826.59;5077114;28;20045;-85
2024/01/12 00:53:07;;;;;;;60.60;33.42;;;;;;;-2.66;66.98;97820.19;5076420;28;20063;-84
2024/01/12 00:55:36;;;;;;;64.95;35.92;;;;;;;-2.65;67.41;97821.81;5076595;28;20044;-86
2024/01/12 00:58:03;;;;;;;58.92;32.47;;;;;;;-2.67;66.61;97815.94;5065252;28;20045;-87
2024/01/12 01:00:31;;;;;;;69.55;35.85;;;;;;;-2.65;66.66;97815.88;5063405;28;20106;-83
2024/01/12 01:03:01;;;;;;;59.60;34.95;;;;;;;-2.65;66.43;97826.94;5062187;28;20045;-86
2024/01/12 01:05:29;;;;;;;64.07;35.75;;;;;;;-2.71;65.97;97817.84;5062244;28;20037;-86
2024/01/12 01:07:57;;;;;;;72.50;37.47;;;;;;;-2.74;66.30;97817.13;5061106;28;20443;-86
2024/01/12 01:10:25;;;;;;;69.45;35.83;;;;;;;-2.77;66.49;97818.09;5060835;28;20132;-84
2024/01/12 01:12:54;;;;;;;61.85;36.30;;;;;;;-2.78;66.69;97818.16;5060396;28;20145;-86
2024/01/12 01:15:21;;;;;;;62.45;36.75;;;;;;;-2.78;65.90;97820.72;5060256;28;20049;-84
2024/01/12 01:17:50;;;;;;;65.32;36.28;;;;;;;-2.80;66.24;97825.91;5059770;28;20056;-83
2024/01/12 01:20:19;;;;;;;64.78;35.25;;;;;;;-2.75;66.87;97823.97;5060057;28;20048;-83
2024/01/12 01:22:47;;;;;;;64.55;35.72;;;;;;;-2.75;66.19;97829.06;5060845;28;20103;-83
2024/01/12 01:25:14;;;;;;;74.40;37.13;;;;;;;-2.80;66.03;97828.47;5060288;28;20048;-84
2024/01/12 01:27:42;;;;;;;61.70;35.33;;;;;;;-2.82;66.67;97831.97;5060904;28;20052;-85
2024/01/12 01:30:13;;;;;;;60.00;33.92;;;;;;;-2.81;67.44;97828.53;5061462;28;20053;-85
2024/01/12 01:32:41;;;;;;;64.75;35.05;;;;;;;-2.76;67.33;97832.50;5060901;28;20057;-85
2024/01/12 01:35:09;;;;;;;60.05;34.90;;;;;;;-2.70;67.65;97833.97;5061045;28;20053;-86
2024/01/12 01:37:37;;;;;;;61.75;34.03;;;;;;;-2.68;66.93;97832.19;5059803;28;20084;-85
2024/01/12 01:40:07;;;;;;;61.80;32.70;;;;;;;-2.74;66.06;97835.84;5060802;28;20144;-86
2024/01/12 01:42:35;;;;;;;62.88;35.47;;;;;;;-2.78;66.10;97834.31;5060288;28;20116;-84
2024/01/12 01:45:03;;;;;;;65.68;36.35;;;;;;;-2.83;66.20;97832.88;5060846;28;20056;-86
2024/01/12 01:47:32;;;;;;;69.45;37.28;;;;;;;-2.88;65.97;97824.59;5067895;28;20033;-85
2024/01/12 01:50:01;;;;;;;67.18;34.25;;;;;;;-2.96;65.85;97828.28;5074891;28;20049;-85
2024/01/12 01:52:29;;;;;;;60.95;34.10;;;;;;;-3.03;65.81;97826.91;5073328;28;20506;-84
2024/01/12 01:54:57;;;;;;;69.65;35.30;;;;;;;-3.09;65.96;97827.19;5066366;28;20071;-86
2024/01/12 01:57:27;;;;;;;67.82;36.83;;;;;;;-3.12;66.23;97822.22;5065950;28;20053;-85
2024/01/12 01:59:55;;;;;;;63.25;34.22;;;;;;;-3.12;66.17;97827.31;5063841;28;20051;-85
2024/01/12 02:02:24;;;;;;;60.88;32.33;;;;;;;-3.14;66.73;97824.00;5064522;28;20048;-85
2024/01/12 02:04:54;;;;;;;59.00;32.70;;;;;;;-3.11;66.93;97826.41;5062987;28;20052;-85
2024/01/12 02:07:22;;;;;;;63.80;34.72;;;;;;;-3.12;66.43;97824.78;5061968;28;20136;-86
2024/01/12 02:09:50;;;;;;;62.13;33.03;;;;;;;-3.12;66.57;97832.44;5062553;28;20045;-87
2024/01/12 02:12:18;;;;;;;63.42;34.38;;;;;;;-3.11;66.60;97831.53;5061776;28;20056;-84
2024/01/12 02:14:45;;;;;;;64.63;34.05;;;;;;;-3.08;66.99;97833.09;5061890;28;20045;-84
2024/01/12 02:17:13;;;;;;;59.17;33.42;;;;;;;-2.99;67.80;97828.44;5060601;28;20079;-84
2024/01/12 02:19:41;;;;;;;62.13;33.83;;;;;;;-2.89;68.36;97823.75;5060993;28;20100;-85
2024/01/12 02:22:10;;;;;;;62.83;34.10;;;;;;;-2.78;67.63;97828.38;5060996;28;20053;-86
2024/01/12 02:24:38;;;;;;;66.45;32.90;;;;;;;-2.81;67.00;97831.91;5060688;28;20049;-84
2024/01/12 02:27:05;;;;;;;59.50;34.00;;;;;;;-2.83;67.63;97832.88;5058886;28;20084;-86
2024/01/12 02:29:33;;;;;;;61.83;33.00;;;;;;;-2.81;68.11;97831.09;5059046;28;20049;-86
2024/01/12 02:32:01;;;;;;;64.35;35.85;;;;;;;-2.82;67.40;97832.81;5058190;28;20052;-84
2024/01/12 02:34:28;;;;;;;60.72;35.08;;;;;;;-2.87;67.22;97828.78;5058752;28;20072;-83
2024/01/12 02:36:56;;;;;;;65.03;35.42;;;;;;;-2.94;67.07;97829.06;5058381;28;20500;-85
2024/01/12 02:39:25;;;;;;;64.93;35.10;;;;;;;-3.01;67.08;97822.56;5058379;28;20049;-84
2024/01/12 02:41:57;;;;;;;63.63;34.47;;;;;;;-3.00;67.82;97821.66;5058668;28;20056;-85
2024/01/12 02:44:25;;;;;;;66.15;35.88;;;;;;;-2.93;67.85;97823.06;5059136;28;20061;-85
2024/01/12 02:46:52;;;;;;;60.20;33.90;;;;;;;-2.89;67.90;97826.31;5061414;28;20253;-84
2024/01/12 02:49:20;;;;;;;62.95;35.55;;;;;;;-2.91;67.64;97818.72;5063251;28;20053;-86
2024/01/12 02:51:48;;;;;;;69.45;36.13;;;;;;;-2.91;67.89;97821.28;5064091;28;20136;-85
2024/01/12 02:54:16;;;;;;;62.33;35.65;;;;;;;-2.87;68.51;97821.94;5062712;28;20072;-84
2024/01/12 02:56:45;;;;;;;62.55;35.30;;;;;;;-2.83;68.67;97823.47;5063485;28;20053;-84
2024/01/12 02:59:13;;;;;;;67.15;36.25;;;;;;;-2.87;67.38;97816.03;5063114;28;20091;-84
2024/01/12 03:01:41;;;;;;;65.93;35.05;;;;;;;-2.96;66.88;97815.53;5064183;28;20521;-86
2024/01/12 03:04:08;;;;;;;64.32;36.78;;;;;;;-3.03;67.38;97815.88;5063445;28;20427;-85
2024/01/12 03:06:36;;;;;;;66.93;34.83;;;;;;;-3.07;66.87;97811.81;5064023;28;20099;-85
2024/01/12 03:09:04;;;;;;;63.10;33.03;;;;;;;-3.14;67.06;97812.06;5064252;28;20431;-86
2024/01/12 03:11:32;;;;;;;59.80;33.65;;;;;;;-3.14;67.21;97816.34;5063287;28;20052;-88
2024/01/12 03:14:01;;;;;;;60.30;34.38;;;;;;;-3.13;67.71;97805.22;5063629;28;20500;-85
2024/01/12 03:16:29;;;;;;;64.72;33.22;;;;;;;-3.12;67.55;97814.56;5063447;28;20073;-84
2024/01/12 03:18:57;;;;;;;61.17;33.10;;;;;;;-3.12;67.15;97812.84;5070474;28;20064;-85
2024/01/12 03:21:25;;;;;;;62.53;34.63;;;;;;;-3.11;67.41;97818.75;5067970;28;20468;-85
2024/01/12 03:23:53;;;;;;;59.53;33.05;;;;;;;-3.07;68.08;97825.38;5063563;28;20520;-84
2024/01/12 03:26:20;;;;;;;63.35;33.42;;;;;;;-3.00;68.55;97828.50;5064262;28;20650;-85
2024/01/12 03:28:48;;;;;;;61.17;34.17;;;;;;;-2.98;68.35;97827.53;5062813;28;20071;-85
2024/01/12 03:31:19;;;;;;;66.53;34.78;;;;;;;-2.94;68.09;97826.50;5062113;28;20045;-85
2024/01/12 03:33:46;;;;;;;54.92;33.45;;;;;;;-2.96;67.52;97817.25;5060917;28;20508;-85
2024/01/12 03:36:16;;;;;;;55.50;30.58;;;;;;;-2.98;67.97;97814.78;5061466;28;20136;-86
2024/01/12 03:38:45;;;;;;;54.47;30.58;;;;;;;-2.94;68.28;97825.69;5064962;28;20072;-85
2024/01/12 03:41:12;;;;;;;58.85;33.05;;;;;;;-2.93;67.58;97825.63;5061919;28;20049;-85
2024/01/12 03:43:40;;;;;;;60.15;33.38;;;;;;;-3.00;67.83;97826.78;5061457;28;20566;-87
2024/01/12 03:46:08;;;;;;;68.45;37.35;;;;;;;-3.06;67.22;97831.31;5063084;28;20052;-85
2024/01/12 03:48:39;;;;;;;66.75;37.58;;;;;;;-3.18;67.41;97837.78;5062182;28;20136;-85
2024/01/12 03:51:07;;;;;;;64.95;37.35;;;;;;;-3.29;66.81;97838.25;5062521;28;20049;-85
2024/01/12 03:53:35;;;;;;;63.92;35.28;;;;;;;-3.40;66.90;97843.81;5062125;28;20068;-85
2024/01/12 03:56:03;;;;;;;62.95;34.80;;;;;;;-3.43;66.91;97835.44;5062000;28;20056;-85
2024/01/12 03:58:31;;;;;;;70.80;37.90;;;;;;;-3.46;67.31;97846.59;5060532;28;20052;-85
2024/01/12 04:00:59;;;;;;;59.85;35.60;;;;;;;-3.39;68.64;97849.72;5060969;28;20045;-84
2024/01/12 04:03:27;;;;;;;66.00;36.72;;;;;;;-3.31;68.70;97851.06;5060635;28;20103;-85
2024/01/12 04:05:56;;;;;;;67.20;36.65;;;;;;;-3.24;69.23;97848.25;5061866;28;20080;-86
2024/01/12 04:08:23;;;;;;;69.78;36.90;;;;;;;-3.20;68.88;97847.25;5060670;28;20071;-85
2024/01/12 04:10:51;;;;;;;69.93;37.78;;;;;;;-3.20;68.09;97849.78;5061565;28;20084;-86
2024/01/12 04:13:19;;;;;;;66.18;36.55;;;;;;;-3.22;67.67;97838.81;5060734;28;20398;-86
2024/01/12 04:18:11;;;;;;;63.75;35.72;;;;;;;-3.28;67.51;97847.56;5101328;22;20051;-76
2024/01/12 04:20:39;;;;;;;70.20;39.10;;;;;;;-3.29;67.40;97852.75;5053497;28;20427;-76
2024/01/12 04:23:08;;;;;;;67.55;38.45;;;;;;;-3.35;66.82;97846.16;5053691;28;20049;-76
2024/01/12 04:25:35;;;;;;;68.38;37.00;;;;;;;-3.37;66.81;97847.94;5053468;28;20049;-76
2024/01/12 04:28:03;;;;;;;69.72;39.22;;;;;;;-3.42;66.93;97840.50;5053404;28;20534;-76
2024/01/12 04:30:31;;;;;;;66.10;36.92;;;;;;;-3.45;67.19;97845.72;5053514;28;20140;-79
2024/01/12 04:32:59;;;;;;;63.85;36.92;;;;;;;-3.45;67.69;97850.84;5053395;28;20049;-78
2024/01/12 04:35:27;;;;;;;68.45;36.83;;;;;;;-3.39;67.82;97844.63;5053602;28;20496;-78
2024/01/12 04:37:54;;;;;;;59.78;35.28;;;;;;;-3.39;67.57;97847.19;5053376;28;20075;-78
2024/01/12 04:40:23;;;;;;;67.78;35.70;;;;;;;-3.40;67.50;97842.97;5053501;28;20143;-78
2024/01/12 04:42:51;;;;;;;68.80;35.53;;;;;;;-3.40;67.44;97833.59;5053047;28;20045;-78
2024/01/12 04:45:18;;;;;;;65.55;35.05;;;;;;;-3.49;66.46;97841.66;5052952;28;20045;-78
2024/01/12 04:47:46;;;;;;;65.13;33.97;;;;;;;-3.56;67.09;97837.69;5053281;28;20049;-79
2024/01/12 04:50:14;;;;;;;62.42;35.22;;;;;;;-3.60;67.54;97837.00;5053321;28;20198;-78
2024/01/12 04:52:41;;;;;;;62.10;36.28;;;;;;;-3.58;67.52;97839.47;5052893;28;20396;-76
2024/01/12 04:55:09;;;;;;;63.03;34.35;;;;;;;-3.57;67.16;97851.31;5053123;28;20053;-76
2024/01/12 04:57:38;;;;;;;59.85;32.53;;;;;;;-3.59;67.29;97842.91;5052596;28;20051;-76
2024/01/12 05:00:07;;;;;;;57.35;31.85;;;;;;;-3.55;66.93;97847.00;5053096;28;20098;-77
2024/01/12 05:02:35;;;;;;;58.30;33.22;;;;;;;-3.54;67.23;97841.84;5053020;28;20087;-76
2024/01/12 05:05:04;;;;;;;59.92;33.10;;;;;;;-3.51;68.00;97858.72;5052787;28;20054;-76
2024/01/12 05:07:31;;;;;;;60.60;34.47;;;;;;;-3.47;67.88;97862.81;5052671;28;20059;-77
2024/01/12 05:09:59;;;;;;;61.63;35.00;;;;;;;-3.44;67.99;97856.75;5052575;28;20076;-76
2024/01/12 05:12:27;;;;;;;58.90;34.28;;;;;;;-3.37;68.19;97859.00;5051911;28;20063;-76
2024/01/12 05:14:55;;;;;;;64.75;36.60;;;;;;;-3.38;67.89;97853.94;5052456;28;20044;-76
2024/01/12 05:17:23;;;;;;;65.82;36.50;;;;;;;-3.41;67.81;97854.06;5052207;28;20573;-76
2024/01/12 05:19:51;;;;;;;61.33;34.17;;;;;;;-3.42;67.70;97852.41;5052430;28;20052;-76
2024/01/12 05:22:19;;;;;;;64.70;35.67;;;;;;;-3.46;67.54;97863.63;5052086;28;20084;-76
2024/01/12 05:24:46;;;;;;;64.88;35.15;;;;;;;-3.52;67.08;97857.91;5052528;28;20045;-78
2024/01/12 05:27:14;;;;;;;71.40;37.55;;;;;;;-3.62;66.87;97863.44;5060201;28;20522;-79
2024/01/12 05:29:41;;;;;;;70.22;37.58;;;;;;;-3.67;66.80;97863.66;5052624;28;20124;-77
2024/01/12 05:32:10;;;;;;;63.72;35.55;;;;;;;-3.70;66.49;97857.81;5052112;28;20096;-76
2024/01/12 05:34:38;;;;;;;69.22;37.58;;;;;;;-3.76;66.32;97859.75;5052440;28;20501;-77
2024/01/12 05:37:05;;;;;;;65.60;35.45;;;;;;;-3.76;67.74;97866.53;5052263;28;20053;-76
2024/01/12 05:39:33;;;;;;;62.83;35.60;;;;;;;-3.71;68.08;97862.09;5052250;28;20467;-76
2024/01/12 05:42:00;;;;;;;67.53;37.50;;;;;;;-3.65;68.35;97858.47;5052094;28;20052;-75
2024/01/12 05:44:29;;;;;;;65.75;34.78;;;;;;;-3.61;67.58;97870.19;5051997;28;20059;-76
2024/01/12 05:46:57;;;;;;;63.35;35.28;;;;;;;-3.71;66.91;97863.84;5052267;28;20056;-76
2024/01/12 05:49:25;;;;;;;68.13;35.20;;;;;;;-3.75;68.07;97868.22;5051891;28;20057;-76
2024/01/12 05:51:53;;;;;;;66.90;36.53;;;;;;;-3.68;68.48;97861.16;5051833;28;20420;-76
2024/01/12 05:54:21;;;;;;;62.97;34.97;;;;;;;-3.61;68.65;97867.66;5051946;28;20059;-76
2024/01/12 05:56:48;;;;;;;66.40;37.25;;;;;;;-3.54;68.64;97869.91;5053073;28;20073;-76
2024/01/12 05:59:16;;;;;;;61.85;35.35;;;;;;;-3.53;67.82;97870.72;5052268;28;20084;-76
2024/01/12 06:01:43;;;;;;;67.28;36.10;;;;;;;-3.58;67.78;97870.91;5052284;28;20049;-75
2024/01/12 06:04:11;;;;;;;64.13;35.17;;;;;;;-3.60;68.04;97867.59;5051814;28;20057;-75
2024/01/12 06:06:42;;;;;;;66.03;35.60;;;;;;;-3.64;67.97;97865.22;5051802;28;20055;-76
2024/01/12 06:09:10;;;;;;;66.05;36.78;;;;;;;-3.67;68.17;97856.00;5052175;28;20053;-76
2024/01/12 06:11:37;;;;;;;66.00;36.88;;;;;;;-3.61;68.22;97865.09;5051903;28;20060;-76
2024/01/12 06:14:05;;;;;;;68.45;37.50;;;;;;;-3.63;67.47;97860.09;5051823;28;20615;-76
2024/01/12 06:16:32;;;;;;;74.88;39.10;;;;;;;-3.71;67.06;97856.19;5051930;28;20055;-77
2024/01/12 06:19:00;;;;;;;68.38;38.42;;;;;;;-3.75;67.83;97847.81;5052054;28;20049;-77
2024/01/12 06:21:28;;;;;;;66.80;37.90;;;;;;;-3.69;68.13;97851.84;5051364;28;20093;-75
2024/01/12 06:23:57;;;;;;;69.22;37.85;;;;;;;-3.65;68.30;97849.13;5051755;28;20102;-75
2024/01/12 06:26:24;;;;;;;66.38;37.88;;;;;;;-3.61;68.41;97844.69;5062510;28;20032;-74
2024/01/12 06:28:52;;;;;;;65.32;35.65;;;;;;;-3.56;68.59;97853.00;5076528;28;20101;-75
2024/01/12 06:31:19;;;;;;;66.32;36.53;;;;;;;-3.55;68.48;97854.66;5076082;28;20033;-75
2024/01/12 06:33:47;;;;;;;72.63;38.03;;;;;;;-3.59;67.45;97853.13;5067015;28;20080;-75
2024/01/12 06:36:14;;;;;;;67.50;35.83;;;;;;;-3.75;66.73;97848.63;5056004;28;20063;-74
2024/01/12 06:38:42;;;;;;;69.60;36.75;;;;;;;-3.86;66.89;97840.59;5057770;28;20045;-74
2024/01/12 06:41:11;;;;;;;65.50;36.42;;;;;;;-3.88;68.01;97847.47;5058609;28;20071;-75
2024/01/12 06:43:38;;;;;;;66.85;36.08;;;;;;;-3.81;68.35;97853.97;5056277;28;20140;-75
2024/01/12 06:46:06;;;;;;;61.17;34.42;;;;;;;-3.73;68.54;97854.50;5054437;28;20106;-75
2024/01/12 06:48:35;;;;;;;63.95;37.30;;;;;;;-3.72;68.52;97855.34;5055503;28;20103;-75
2024/01/12 06:51:02;;;;;;;64.95;35.72;;;;;;;-3.70;68.09;97850.19;5055587;28;20060;-76
2024/01/12 06:53:30;;;;;;;63.90;34.92;;;;;;;-3.70;68.32;97845.91;5054463;28;20496;-75
2024/01/12 06:55:58;;;;;;;66.13;35.72;;;;;;;-3.61;68.93;97849.78;5055443;28;20496;-75
2024/01/12 06:58:27;;;;;;;66.05;36.42;;;;;;;-3.58;68.52;97847.13;5055051;28;20060;-76
2024/01/12 07:00:56;;;;;;;69.90;35.70;;;;;;;-3.63;67.58;97849.88;5055238;28;20400;-74
2024/01/12 07:03:24;;;;;;;59.80;35.25;;;;;;;-3.74;67.72;97852.88;5052036;28;20040;-74
2024/01/12 07:05:51;;;;;;;71.70;37.58;;;;;;;-3.78;67.91;97848.78;5065578;28;20098;-75
2024/01/12 07:08:19;;;;;;;67.47;35.97;;;;;;;-3.79;67.86;97859.84;5055938;28;20046;-75
2024/01/12 07:10:47;;;;;;;65.75;34.30;;;;;;;-3.75;68.33;97853.75;5055371;28;20106;-75
2024/01/12 07:13:14;;;;;;;59.92;33.60;;;;;;;-3.71;68.65;97858.72;5054258;28;20057;-74
2024/01/12 07:15:43;;;;;;;70.80;36.13;;;;;;;-3.68;68.76;97856.03;5054629;28;20069;-74
2024/01/12 07:18:11;;;;;;;64.93;35.95;;;;;;;-3.67;68.39;97860.25;5054868;28;20080;-75
2024/01/12 07:20:39;;;;;;;61.17;35.63;;;;;;;-3.74;67.97;97863.06;5054697;28;20045;-75
2024/01/12 07:23:06;;;;;;;67.38;36.78;;;;;;;-3.81;68.41;97874.38;5054493;28;20053;-74
2024/01/12 07:25:36;;;;;;;62.55;33.55;;;;;;;-3.83;68.23;97880.44;5054617;28;20461;-74
2024/01/12 07:28:05;;;;;;;65.88;33.97;;;;;;;-3.85;68.23;97883.03;5053315;28;20479;-74
2024/01/12 07:30:32;;;;;;;61.28;33.97;;;;;;;-3.83;68.32;97876.16;5054227;28;20045;-74
2024/01/12 07:33:01;;;;;;;62.85;34.88;;;;;;;-3.79;68.26;97881.97;5052905;28;20056;-74
2024/01/12 07:35:29;;;;;;;63.10;33.83;;;;;;;-3.76;68.12;97885.25;5062679;28;20051;-74
2024/01/12 07:37:57;;;;;;;64.28;36.50;;;;;;;-3.74;68.60;97874.97;5053743;28;20052;-75
2024/01/12 07:40:24;;;;;;;71.30;38.05;;;;;;;-3.68;68.29;97884.91;5053151;28;20095;-75
2024/01/12 07:42:52;;;;;;;60.45;34.83;;;;;;;-3.70;67.88;97880.78;5052999;28;20679;-75
2024/01/12 07:45:19;;;;;;;65.75;35.75;;;;;;;-3.73;67.66;97877.47;5053052;28;20053;-75
2024/01/12 07:47:47;;;;;;;71.55;38.38;;;;;;;-3.70;68.08;97880.78;5053337;28;20119;-75
2024/01/12 07:50:16;;;;;;;63.88;35.97;;;;;;;-3.69;67.69;97882.44;5054622;28;20055;-75
2024/01/12 07:52:43;;;;;;;76.78;38.20;;;;;;;-3.77;66.89;97880.19;5054532;28;20049;-75
2024/01/12 07:55:11;;;;;;;69.40;38.03;;;;;;;-3.88;66.94;97878.06;5054277;28;20075;-75
2024/01/12 07:57:39;;;;;;;66.72;36.13;;;;;;;-3.90;67.65;97873.94;5054120;28;20041;-75
2024/01/12 08:00:07;;;;;;;82.93;41.08;;;;;;;-3.91;67.23;97874.81;5053822;28;20088;-75
2024/01/12 08:02:35;;;;;;;73.80;40.63;;;;;;;-3.93;66.63;97877.44;5053442;28;20049;-75
2024/01/12 08:05:04;;;;;;;74.80;39.33;;;;;;;-3.97;66.71;97873.34;5054093;28;20052;-75
2024/01/12 08:07:33;;;;;;;78.80;39.80;;;;;;;-4.02;66.23;97885.44;5053778;28;20105;-75
2024/01/12 08:10:00;;;;;;;73.43;40.97;;;;;;;-4.06;66.76;97889.81;5053946;28;20458;-74
2024/01/12 08:12:28;;;;;;;78.53;41.67;;;;;;;-4.08;66.89;97895.88;5053553;28;20132;-75
2024/01/12 08:14:55;;;;;;;76.18;39.83;;;;;;;-4.07;66.74;97905.97;5053792;28;20049;-74
2024/01/12 08:17:23;;;;;;;75.93;39.28;;;;;;;-4.05;66.84;97905.94;5054014;28;20049;-74
2024/01/12 08:19:51;;;;;;;76.57;39.58;;;;;;;-4.10;66.63;97907.84;5054143;28;20144;-75
2024/01/12 08:22:18;;;;;;;78.82;39.90;;;;;;;-4.12;67.16;97912.16;5054060;28;20513;-75
2024/01/12 08:24:47;;;;;;;73.85;38.55;;;;;;;-4.05;68.03;97922.06;5054361;28;20131;-75
2024/01/12 08:27:15;;;;;;;76.65;41.15;;;;;;;-3.98;67.44;97910.75;5053987;28;20049;-75
2024/01/12 08:29:45;;;;;;;76.13;38.72;;;;;;;-3.98;67.33;97925.19;5054248;28;20056;-75
2024/01/12 08:32:13;;;;;;;76.93;39.50;;;;;;;-3.96;67.03;97934.47;5053610;28;20131;-75
2024/01/12 08:34:41;;;;;;;73.97;39.63;;;;;;;-3.92;66.98;97921.59;5053921;28;20053;-75
2024/01/12 08:37:08;;;;;;;68.65;37.28;;;;;;;-3.84;67.32;97928.06;5053584;28;20126;-75
2024/01/12 08:39:36;;;;;;;66.45;37.33;;;;;;;-3.74;68.14;97921.72;5053872;28;20249;-75
2024/01/12 08:42:06;;;;;;;71.43;38.20;;;;;;;-3.60;68.17;97926.25;5053645;28;20497;-76
2024/01/12 08:44:33;;;;;;;65.40;36.75;;;;;;;-3.54;67.72;97930.28;5053206;28;20132;-75
2024/01/12 08:47:01;;;;;;;69.90;37.40;;;;;;;-3.54;67.58;97926.00;5052564;28;20052;-74
2024/01/12 08:49:28;;;;;;;71.05;37.63;;;;;;;-3.57;67.26;97935.50;5053922;28;20057;-76
2024/01/12 08:51:56;;;;;;;68.65;36.80;;;;;;;-3.52;67.77;97941.22;5053596;28;20062;-75
2024/01/12 08:54:24;;;;;;;71.93;38.67;;;;;;;-3.46;67.48;97940.16;5053230;28;20170;-75
2024/01/12 08:56:51;;;;;;;72.32;36.88;;;;;;;-3.49;66.73;97936.03;5053251;28;20071;-75
2024/01/12 08:59:20;;;;;;;71.20;38.70;;;;;;;-3.46;66.90;97930.78;5053419;28;20080;-75
2024/01/12 09:01:48;;;;;;;67.13;38.08;;;;;;;-3.43;66.97;97927.28;5053247;28;20519;-75
2024/01/12 09:04:16;;;;;;;64.38;37.13;;;;;;;-3.35;67.95;97930.34;5052939;28;20135;-75
2024/01/12 09:06:44;;;;;;;64.85;37.60;;;;;;;-3.29;67.35;97934.38;5052938;28;20044;-75
2024/01/12 09:09:11;;;;;;;63.55;35.28;;;;;;;-3.23;67.78;97939.25;5052639;28;20124;-75
2024/01/12 09:11:39;;;;;;;65.28;32.47;;;;;;;-3.16;67.44;97933.00;5052538;28;20052;-75
2024/01/12 09:14:07;;;;;;;69.97;37.55;;;;;;;-3.16;66.87;97951.69;5052665;28;20049;-75
2024/01/12 09:16:38;;;;;;;62.35;34.90;;;;;;;-3.18;66.81;97957.75;5052509;28;20049;-75
2024/01/12 09:19:06;;;;;;;55.58;31.25;;;;;;;-3.17;67.07;97949.19;5052558;28;20083;-75
2024/01/12 09:21:34;;;;;;;54.83;30.42;;;;;;;-3.11;67.85;97951.47;5052806;28;20049;-75
2024/01/12 09:24:02;;;;;;;46.95;23.75;;;;;;;-2.99;68.13;97948.44;5052989;28;20052;-75
2024/01/12 09:26:30;;;;;;;46.08;25.35;;;;;;;-2.86;68.38;97940.22;5052610;28;20132;-75
2024/01/12 09:28:58;;;;;;;34.45;17.63;;;;;;;-2.73;68.68;97941.41;5052650;28;20425;-75
2024/01/12 09:31:25;;;;;;;35.08;18.35;;;;;;;-2.66;69.02;97939.41;5052371;28;20496;-74
2024/01/12 09:33:54;;;;;;;32.63;15.63;;;;;;;-2.60;69.16;97945.06;5052218;28;20080;-75
2024/01/12 09:36:22;;;;;;;33.13;16.67;;;;;;;-2.57;68.57;97947.47;5051982;28;20049;-75
2024/01/12 09:38:50;;;;;;;51.63;24.25;;;;;;;-2.57;68.14;97937.25;5052050;28;20131;-75
2024/01/12 09:41:37;;;;;;;43.40;23.48;;;;;;;-2.57;68.82;97936.44;5053860;28;20049;-74
2024/01/12 09:44:08;;;;;;;47.75;24.80;;;;;;;-2.53;68.93;97936.22;5054963;28;20068;-75
2024/01/12 09:46:41;;;;;;;47.83;25.75;;;;;;;-2.52;68.43;97934.50;5051789;28;20657;-75
2024/01/12 09:49:10;;;;;;;50.72;27.20;;;;;;;-2.52;67.90;97925.09;5052359;28;20423;-75
2024/01/12 09:51:38;;;;;;;48.97;26.23;;;;;;;-2.53;67.51;97920.09;5051772;28;20053;-75
2024/01/12 09:54:06;;;;;;;49.38;25.70;;;;;;;-2.58;67.88;97927.97;5052615;28;20049;-75
2024/01/12 09:56:34;;;;;;;54.38;27.95;;;;;;;-2.54;68.97;97929.44;5052210;28;20119;-75
2024/01/12 09:59:12;;;;;;;43.50;25.35;;;;;;;-2.44;69.17;97935.00;5067872;28;20055;-75
2024/01/12 10:01:42;;;;;;;47.75;25.27;;;;;;;-2.38;69.06;97944.13;5068798;28;20048;-75
2024/01/12 10:04:11;;;;;;;49.72;24.80;;;;;;;-2.38;68.28;97941.59;5056232;28;20102;-75
2024/01/12 10:06:38;;;;;;;44.22;24.80;;;;;;;-2.41;68.54;97941.69;5053511;28;20057;-75
2024/01/12 10:09:07;;;;;;;44.58;24.52;;;;;;;-2.36;69.43;97942.31;5052759;28;20048;-75
2024/01/12 10:11:35;;;;;;;51.20;25.92;;;;;;;-2.24;69.70;97944.31;5052280;28;20081;-75
2024/01/12 10:14:04;;;;;;;47.25;25.77;;;;;;;-2.12;69.94;97953.16;5052281;28;20432;-75
2024/01/12 10:16:31;;;;;;;43.88;24.88;;;;;;;-2.07;68.92;97946.13;5051968;28;20488;-75
2024/01/12 10:19:00;;;;;;;46.63;24.42;;;;;;;-2.03;69.38;97946.78;5052294;28;20045;-75
2024/01/12 10:21:29;;;;;;;35.75;19.95;;;;;;;-1.98;69.91;97947.44;5052130;28;20053;-75
2024/01/12 10:24:02;;;;;;;35.30;19.08;;;;;;;-1.93;70.45;97937.81;5051885;28;20052;-75
2024/01/12 10:26:30;;;;;;;34.85;19.10;;;;;;;-1.91;69.68;97943.69;5052386;28;20128;-75
2024/01/12 10:29:01;;;;;;;39.25;18.67;;;;;;;-1.90;70.54;97937.69;5052051;28;20045;-75
2024/01/12 10:31:29;;;;;;;34.63;17.95;;;;;;;-1.85;70.22;97930.63;5052262;28;20144;-75
2024/01/12 10:33:59;;;;;;;35.80;17.67;;;;;;;-1.81;70.27;97926.19;5052183;28;20438;-75
2024/01/12 10:36:29;;;;;;;31.90;15.85;;;;;;;-1.79;70.52;97916.69;5052522;28;20072;-75
2024/01/12 10:38:58;;;;;;;29.05;14.48;;;;;;;-1.77;70.25;97923.41;5052177;28;20135;-75
2024/01/12 10:41:26;;;;;;;30.15;14.23;;;;;;;-1.77;70.25;97920.00;5051796;28;20078;-74
2024/01/12 10:43:57;;;;;;;26.73;13.35;;;;;;;-1.81;70.34;97921.91;5051520;28;20053;-75
2024/01/12 10:46:34;;;;;;;27.45;13.82;;;;;;;-1.77;70.97;97931.09;5051660;28;20060;-75
2024/01/12 10:49:07;;;;;;;24.70;13.18;;;;;;;-1.74;70.67;97928.38;5053459;28;20057;-77
2024/01/12 10:51:39;;;;;;;26.73;13.10;;;;;;;-1.70;70.37;97921.41;5052871;28;20427;-75
2024/01/12 10:54:11;;;;;;;25.00;13.25;;;;;;;-1.74;70.32;97928.38;5052672;28;20534;-74
2024/01/12 10:56:40;;;;;;;23.10;11.98;;;;;;;-1.76;70.25;97922.50;5057877;28;20139;-74
2024/01/12 10:59:08;;;;;;;26.85;13.00;;;;;;;-1.78;70.39;97910.69;5055566;28;20053;-74
2024/01/12 11:01:37;;;;;;;22.23;11.85;;;;;;;-1.82;70.45;97907.44;5055137;28;20139;-74
2024/01/12 11:04:05;;;;;;;24.67;12.00;;;;;;;-1.81;71.18;97906.56;5054450;28;20140;-74
2024/01/12 11:06:36;;;;;;;25.88;11.65;;;;;;;-1.82;70.85;97898.94;5053682;28;20059;-72
2024/01/12 11:09:06;;;;;;;25.73;12.73;;;;;;;-1.87;71.69;97905.09;5054953;28;20049;-77
2024/01/12 11:11:41;;;;;;;24.50;12.30;;;;;;;-1.85;71.90;97886.31;5057698;28;20572;-77
2024/01/12 11:14:09;;;;;;;31.48;14.60;;;;;;;-1.81;71.73;97886.09;5056913;28;20531;-76
2024/01/12 11:16:37;;;;;;;24.17;12.50;;;;;;;-1.76;71.53;97891.81;5055833;28;20045;-74
2024/01/12 11:19:12;;;;;;;29.42;13.68;;;;;;;-1.74;72.29;97892.56;5054447;28;20072;-74
2024/01/12 11:21:42;;;;;;;28.75;14.20;;;;;;;-1.70;71.93;97891.53;5054699;28;20608;-75
2024/01/12 11:24:11;;;;;;;25.90;13.27;;;;;;;-1.68;71.60;97888.91;5054415;28;20539;-75